Terminal Aerodrome Forecast
Issued by NWS

Home | Current Version | Previous Version | Text Only | Print | Product List | Glossary On
Versions: 1 2 3 4 5 6 7 8 9 10 11 12 13 14 15 16 17 18
487
FTUS45 KABQ 050540
TAFSAF
TAF
KSAF 050540Z 0506/0606 36006KT P6SM FEW250
     FM051200 36010G16KT P6SM FEW250
     FM051830 26012G20KT P6SM SCT250
     FM060130 32008KT P6SM SCT250=

USA.gov is the U.S. government's official web portal to all federal, state and local government web resources and services.